Wednesday, September 20, 2017, 9:30 PM EDT

KEZF, Fredericksburg, Shannon Airport

Location: Fredericksburg, VA, United States Lat: 38.267
Local Time: 9:30 PM EDT ( 1:30 GMT) Lon: -77.45
Time Zone: US/Eastern Elev: 85 ft

Show me the last for .
Show Decoded

2017-09-20 21:15 METAR KEZF 210115Z AUTO 00000KT 10SM CLR 21/18 A2996 RMK AO2 T02050180 =
2017-09-20 20:55 METAR KEZF 210055Z AUTO 00000KT 10SM CLR 21/18 A2996 RMK AO2 T02100180 =
2017-09-20 20:35 METAR KEZF 210035Z AUTO 00000KT 10SM CLR 21/18 A2995 RMK AO2 T02140182 =
2017-09-20 20:15 METAR KEZF 210015Z AUTO 00000KT 10SM CLR 22/19 A2995 RMK AO2 T02190185 =
2017-09-20 19:55 METAR KEZF 202355Z AUTO 00000KT 10SM CLR 22/19 A2995 RMK AO2 T02240190 10312
                 20224 =
2017-09-20 19:35 METAR KEZF 202335Z AUTO 00000KT 10SM CLR 23/19 A2994 RMK AO2 T02310192 =
2017-09-20 19:15 METAR KEZF 202315Z AUTO 00000KT 10SM CLR 24/20 A2994 RMK AO2 T02440196 =
2017-09-20 18:55 METAR KEZF 202255Z AUTO 00000KT 10SM CLR 26/20 A2993 RMK AO2 T02590197 =
2017-09-20 18:35 METAR KEZF 202235Z AUTO 00000KT 10SM CLR 29/17 A2993 RMK AO2 T02890167 =
2017-09-20 18:15 METAR KEZF 202215Z AUTO 36004KT 10SM CLR 29/17 A2993 RMK AO2 T02940172 =
2017-09-20 17:55 METAR KEZF 202155Z AUTO 34005KT 10SM CLR 30/16 A2992 RMK AO2 T02960163 =
2017-09-20 17:35 METAR KEZF 202135Z AUTO 36006KT 10SM CLR 30/15 A2992 RMK AO2 T03000153 =
2017-09-20 17:15 METAR KEZF 202115Z AUTO 35006KT 10SM CLR 30/16 A2992 RMK AO2 T03020155 =
2017-09-20 16:55 METAR KEZF 202055Z AUTO 33006KT 10SM CLR 31/16 A2991 RMK AO2 T03090164 =
2017-09-20 16:35 METAR KEZF 202035Z AUTO 35006KT 10SM CLR 31/16 A2991 RMK AO2 T03100162 =
2017-09-20 16:15 METAR KEZF 202015Z AUTO 32005KT 10SM CLR 31/17 A2991 RMK AO2 T03090165 =
2017-09-20 15:55 METAR KEZF 201955Z AUTO 31007KT 280V360 10SM CLR 31/17 A2991 RMK AO2 T03110168 =
2017-09-20 15:35 METAR KEZF 201935Z AUTO 31006KT 10SM CLR 31/17 A2992 RMK AO2 T03070173 =
2017-09-20 15:15 METAR KEZF 201915Z AUTO 35006KT 10SM CLR 31/16 A2993 RMK AO2 T03060163 =
2017-09-20 14:55 METAR KEZF 201855Z AUTO 31004KT 10SM CLR 31/17 A2993 RMK AO2 T03060170 =
2017-09-20 14:35 METAR KEZF 201835Z AUTO 01005KT 10SM CLR 31/16 A2994 RMK AO2 T03050159 =
2017-09-20 14:15 METAR KEZF 201815Z AUTO 36005KT 10SM CLR 30/16 A2994 RMK AO2 T03010156 =
2017-09-20 13:55 METAR KEZF 201755Z AUTO 02006KT 10SM CLR 30/16 A2994 RMK AO2 T03010161 10303
                 20189 =
2017-09-20 13:35 METAR KEZF 201735Z AUTO 33005KT 10SM CLR 30/17 A2995 RMK AO2 T03020166 =
2017-09-20 13:15 METAR KEZF 201715Z AUTO 32006KT 10SM CLR 30/17 A2996 RMK AO2 T02950173 =
2017-09-20 12:55 METAR KEZF 201655Z AUTO 31007KT 280V340 10SM CLR 29/18 A2996 RMK AO2 T02900178 =
2017-09-20 12:35 METAR KEZF 201635Z AUTO 32007KT 10SM CLR 29/19 A2997 RMK AO2 T02890188 =
2017-09-20 12:15 METAR KEZF 201615Z AUTO 34006KT 10SM CLR 29/18 A2997 RMK AO2 T02850183 =
2017-09-20 11:55 METAR KEZF 201555Z AUTO 36006KT 10SM CLR 28/18 A2997 RMK AO2 T02800184 =
2017-09-20 11:35 METAR KEZF 201535Z AUTO 36003KT 10SM CLR 28/18 A2998 RMK AO2 T02760177 =
2017-09-20 11:15 METAR KEZF 201515Z AUTO 36006KT 10SM CLR 28/19 A2998 RMK AO2 T02750185 =
2017-09-20 10:55 METAR KEZF 201455Z AUTO 34005KT 10SM CLR 27/18 A2998 RMK AO2 T02720183 =
2017-09-20 10:35 METAR KEZF 201435Z AUTO 34003KT 10SM CLR 26/18 A2998 RMK AO2 T02620184 =
2017-09-20 10:15 METAR KEZF 201415Z AUTO 34005KT 10SM CLR 26/19 A2998 RMK AO2 T02560188 =
2017-09-20 09:55 METAR KEZF 201355Z AUTO 31005KT 10SM CLR 24/19 A2998 RMK AO2 T02440185 =
2017-09-20 09:35 METAR KEZF 201335Z AUTO 31007KT 10SM CLR 24/18 A2998 RMK AO2 T02350182 =
2017-09-20 09:15 METAR KEZF 201315Z AUTO 31004KT 10SM CLR 23/18 A2998 RMK AO2 T02260182 =
2017-09-20 08:55 METAR KEZF 201255Z AUTO 32005KT 10SM CLR 22/18 A2997 RMK AO2 T02170180 =
2017-09-20 08:35 METAR KEZF 201235Z AUTO 31004KT 10SM CLR 21/18 A2997 RMK AO2 T02090179 =
2017-09-20 08:15 METAR KEZF 201215Z AUTO 30004KT 10SM CLR 20/19 A2996 RMK AO2 T01980191 =
2017-09-20 07:55 METAR KEZF 201155Z AUTO 28003KT 10SM CLR 19/19 A2996 RMK AO2 T01880188 10202
                 20177 =
2017-09-20 07:35 METAR KEZF 201135Z AUTO 32003KT 7SM CLR 18/18 A2996 RMK AO2 T01800180 =
2017-09-20 07:15 METAR KEZF 201115Z AUTO 29004KT 10SM CLR 18/18 A2996 RMK AO2 T01800180 =
2017-09-20 06:55 METAR KEZF 201055Z AUTO 00000KT 10SM CLR 18/18 A2995 RMK AO2 T01820182 =
2017-09-20 06:35 METAR KEZF 201035Z AUTO 00000KT 10SM CLR 18/18 A2994 RMK AO2 T01780178 =
2017-09-20 06:15 METAR KEZF 201015Z AUTO 00000KT 10SM CLR 18/18 A2993 RMK AO2 T01800180 =
2017-09-20 05:55 METAR KEZF 200955Z AUTO 00000KT 10SM CLR 18/18 A2992 RMK AO2 T01800180 =
2017-09-20 05:35 METAR KEZF 200935Z AUTO 00000KT 10SM CLR 18/18 A2992 RMK AO2 T01840175 =
2017-09-20 05:15 METAR KEZF 200915Z AUTO 30003KT 10SM CLR 19/18 A2992 RMK AO2 T01940179 =
2017-09-20 04:55 METAR KEZF 200855Z AUTO 32003KT 10SM CLR 20/18 A2993 RMK AO2 T01960178 =
2017-09-20 04:35 METAR KEZF 200835Z AUTO 30004KT 10SM CLR 20/18 A2992 RMK AO2 T01970180 =
2017-09-20 04:15 METAR KEZF 200815Z AUTO 31005KT 10SM CLR 20/18 A2992 RMK AO2 T01970180 =
2017-09-20 03:55 METAR KEZF 200755Z AUTO 31004KT 10SM CLR 20/18 A2992 RMK AO2 T01970181 =
2017-09-20 03:35 METAR KEZF 200735Z AUTO 31004KT 10SM CLR 20/18 A2992 RMK AO2 T02000182 =
2017-09-20 03:15 METAR KEZF 200715Z AUTO 32006KT 10SM CLR 20/18 A2991 RMK AO2 T02010182 =
2017-09-20 02:55 METAR KEZF 200655Z AUTO 33005KT 10SM CLR 20/19 A2992 RMK AO2 T02020185 =
2017-09-20 02:35 METAR KEZF 200635Z AUTO 31005KT 10SM CLR 20/19 A2992 RMK AO2 T02010185 =
2017-09-20 02:15 METAR KEZF 200615Z AUTO 30005KT 10SM CLR 20/19 A2993 RMK AO2 T01980185 =
2017-09-20 01:55 METAR KEZF 200555Z AUTO 30003KT 10SM CLR 20/19 A2993 RMK AO2 T02010185 10241
                 20197 402800193 =
2017-09-20 01:35 METAR KEZF 200535Z AUTO 31006KT 10SM CLR 20/19 A2993 RMK AO2 T02020185 =
2017-09-20 01:15 METAR KEZF 200515Z AUTO 30004KT 10SM CLR 20/19 A2992 RMK AO2 T02010185 =
2017-09-20 00:55 METAR KEZF 200455Z AUTO 28004KT 10SM CLR 20/19 A2992 RMK AO2 T02020185 =
2017-09-20 00:35 METAR KEZF 200435Z AUTO 27004KT 10SM CLR 20/19 A2992 RMK AO2 T01970190 =
2017-09-20 00:15 METAR KEZF 200415Z AUTO 28004KT 10SM CLR 20/19 A2991 RMK AO2 T02010190 =
2017-09-19 23:55 METAR KEZF 200355Z AUTO 31003KT 10SM CLR 21/19 A2991 RMK AO2 T02050189 =
2017-09-19 23:35 METAR KEZF 200335Z AUTO 31003KT 10SM CLR 21/19 A2992 RMK AO2 T02090188 =
2017-09-19 23:15 METAR KEZF 200315Z AUTO 32003KT 10SM CLR 21/19 A2992 RMK AO2 T02120188 =
2017-09-19 22:55 METAR KEZF 200255Z AUTO 32003KT 10SM CLR 21/19 A2992 RMK AO2 T02130190 =
2017-09-19 22:35 METAR KEZF 200235Z AUTO 30005KT 10SM CLR 22/19 A2992 RMK AO2 T02150190 =
2017-09-19 22:15 METAR KEZF 200215Z AUTO 29004KT 10SM CLR 22/19 A2992 RMK AO2 T02170190 =
2017-09-19 21:55 METAR KEZF 200155Z AUTO 31004KT 10SM CLR 22/19 A2991 RMK AO2 T02200192 =
2017-09-19 21:35 METAR KEZF 200135Z AUTO 30004KT 10SM CLR 22/19 A2991 RMK AO2 T02210192 =

Support USWX by starting your Amazon purchase here.